Archival Weather

Chicago O'Hare International

Chicago, Illinois (KORD)

Report from: Saturday, August 6, 2022 9:51 AM CDT
Current time: Thursday, August 18, 2022 11:37 PM CDT

Current weather
Weather history
Weather forecast

Temperature29.4°C (84.9°F)
Heat index32.8°C (91.1°F)
Dew point22.2°C (72.0°F)
Winds 6 kts (3.1 m/s, 6.9 mph) Vrb
Winds variableWinds variable
Visibility10 mi. (16.1 km)
Clouds Scattered clouds 3,000 ft. (914 m)
Scattered clouds 25,000 ft. (7,620 m)
Altimeter30.07 in.Hg (1018 mB)
Relative humidity65 %
Density altitude1,843 ft. (562 m)
Sea-level pressure101.8 kPa (1018 mB, 30.05 in.Hg)
Remarks Automated weather observing station with precipitation discriminator
Pressure falling, then rising
Flight conditions Visual Meteorological Conditions
Raw dataKORD 061451Z VRB06KT 10SM SCT030 SCT250 29/22 A3007 RMK AO2 SLP177 T02940222 55000
An unhandled exception has occurred. See browser dev tools for details. Reload 🗙